sensor_id;sensor_type;location;lat;lon;timestamp;P1;durP1;ratioP1;P2;durP2;ratioP2
13897;SDS011;7019;50.766;4.474;2022-11-20T00:02:02;65.67;;;32.50;;
13897;SDS011;7019;50.766;4.474;2022-11-20T00:04:29;64.17;;;33.40;;
13897;SDS011;7019;50.766;4.474;2022-11-20T00:06:56;64.30;;;32.10;;
13897;SDS011;7019;50.766;4.474;2022-11-20T00:09:23;56.13;;;31.70;;
13897;SDS011;7019;50.766;4.474;2022-11-20T00:11:50;60.10;;;31.93;;
13897;SDS011;7019;50.766;4.474;2022-11-20T00:14:17;59.30;;;31.67;;
13897;SDS011;7019;50.766;4.474;2022-11-20T00:16:46;66.53;;;34.77;;
13897;SDS011;7019;50.766;4.474;2022-11-20T00:19:13;59.27;;;32.80;;
13897;SDS011;7019;50.766;4.474;2022-11-20T00:21:40;58.90;;;33.43;;
13897;SDS011;7019;50.766;4.474;2022-11-20T00:24:08;55.80;;;32.60;;
13897;SDS011;7019;50.766;4.474;2022-11-20T00:26:35;70.53;;;36.13;;
13897;SDS011;7019;50.766;4.474;2022-11-20T00:29:02;73.73;;;36.87;;
13897;SDS011;7019;50.766;4.474;2022-11-20T00:31:29;73.43;;;36.67;;
13897;SDS011;7019;50.766;4.474;2022-11-20T00:33:59;68.03;;;34.57;;
13897;SDS011;7019;50.766;4.474;2022-11-20T00:36:27;65.20;;;34.93;;
13897;SDS011;7019;50.766;4.474;2022-11-20T00:38:55;84.33;;;38.37;;
13897;SDS011;7019;50.766;4.474;2022-11-20T00:41:24;64.60;;;34.03;;
13897;SDS011;7019;50.766;4.474;2022-11-20T00:43:53;64.83;;;33.27;;
13897;SDS011;7019;50.766;4.474;2022-11-20T00:46:21;70.10;;;33.93;;
13897;SDS011;7019;50.766;4.474;2022-11-20T00:48:49;66.07;;;32.97;;
13897;SDS011;7019;50.766;4.474;2022-11-20T00:51:18;65.67;;;33.60;;
13897;SDS011;7019;50.766;4.474;2022-11-20T00:53:46;71.90;;;35.83;;
13897;SDS011;7019;50.766;4.474;2022-11-20T00:56:14;60.43;;;32.70;;
13897;SDS011;7019;50.766;4.474;2022-11-20T00:58:44;72.13;;;36.50;;
13897;SDS011;7019;50.766;4.474;2022-11-20T01:01:14;65.93;;;34.87;;
13897;SDS011;7019;50.766;4.474;2022-11-20T01:03:43;65.73;;;33.60;;
13897;SDS011;7019;50.766;4.474;2022-11-20T01:06:13;58.33;;;30.20;;
13897;SDS011;7019;50.766;4.474;2022-11-20T01:08:43;72.27;;;36.27;;
13897;SDS011;7019;50.766;4.474;2022-11-20T01:11:12;60.53;;;33.43;;
13897;SDS011;7019;50.766;4.474;2022-11-20T01:13:40;70.80;;;37.57;;
13897;SDS011;7019;50.766;4.474;2022-11-20T01:16:09;67.53;;;37.27;;
13897;SDS011;7019;50.766;4.474;2022-11-20T01:18:38;68.70;;;35.53;;
13897;SDS011;7019;50.766;4.474;2022-11-20T01:21:07;60.40;;;32.40;;
13897;SDS011;7019;50.766;4.474;2022-11-20T01:23:37;57.90;;;32.67;;
13897;SDS011;7019;50.766;4.474;2022-11-20T01:26:07;53.27;;;30.53;;
13897;SDS011;7019;50.766;4.474;2022-11-20T01:28:37;57.37;;;31.80;;
13897;SDS011;7019;50.766;4.474;2022-11-20T01:31:10;58.67;;;32.60;;
13897;SDS011;7019;50.766;4.474;2022-11-20T01:33:39;71.47;;;35.73;;
13897;SDS011;7019;50.766;4.474;2022-11-20T01:36:07;73.80;;;36.60;;
13897;SDS011;7019;50.766;4.474;2022-11-20T01:38:35;71.27;;;36.27;;
13897;SDS011;7019;50.766;4.474;2022-11-20T01:41:02;58.17;;;32.63;;
13897;SDS011;7019;50.766;4.474;2022-11-20T01:43:31;61.50;;;34.13;;
13897;SDS011;7019;50.766;4.474;2022-11-20T01:45:58;67.13;;;34.93;;
13897;SDS011;7019;50.766;4.474;2022-11-20T01:48:33;62.80;;;33.83;;
13897;SDS011;7019;50.766;4.474;2022-11-20T01:51:05;58.67;;;33.40;;
13897;SDS011;7019;50.766;4.474;2022-11-20T01:53:39;64.27;;;34.77;;
13897;SDS011;7019;50.766;4.474;2022-11-20T01:56:08;70.63;;;36.63;;
13897;SDS011;7019;50.766;4.474;2022-11-20T01:58:38;71.33;;;36.50;;
13897;SDS011;7019;50.766;4.474;2022-11-20T02:01:10;60.93;;;33.57;;
13897;SDS011;7019;50.766;4.474;2022-11-20T02:03:38;60.27;;;33.83;;
13897;SDS011;7019;50.766;4.474;2022-11-20T02:06:08;65.83;;;33.53;;
13897;SDS011;7019;50.766;4.474;2022-11-20T02:08:40;63.37;;;32.97;;
13897;SDS011;7019;50.766;4.474;2022-11-20T02:11:08;61.73;;;33.60;;
13897;SDS011;7019;50.766;4.474;2022-11-20T02:13:35;58.80;;;33.63;;
13897;SDS011;7019;50.766;4.474;2022-11-20T02:16:16;58.50;;;31.90;;
13897;SDS011;7019;50.766;4.474;2022-11-20T02:18:47;69.93;;;33.33;;
13897;SDS011;7019;50.766;4.474;2022-11-20T02:21:27;57.43;;;30.83;;
13897;SDS011;7019;50.766;4.474;2022-11-20T02:24:10;62.93;;;32.83;;
13897;SDS011;7019;50.766;4.474;2022-11-20T02:26:42;60.80;;;31.93;;
13897;SDS011;7019;50.766;4.474;2022-11-20T02:29:15;57.07;;;32.10;;
13897;SDS011;7019;50.766;4.474;2022-11-20T02:31:45;58.87;;;32.90;;
13897;SDS011;7019;50.766;4.474;2022-11-20T02:34:12;58.30;;;32.57;;
13897;SDS011;7019;50.766;4.474;2022-11-20T02:36:39;61.93;;;33.57;;
13897;SDS011;7019;50.766;4.474;2022-11-20T02:39:10;61.17;;;31.63;;
13897;SDS011;7019;50.766;4.474;2022-11-20T02:41:41;62.43;;;32.10;;
13897;SDS011;7019;50.766;4.474;2022-11-20T02:44:09;61.40;;;32.10;;
13897;SDS011;7019;50.766;4.474;2022-11-20T02:46:36;53.93;;;30.23;;
13897;SDS011;7019;50.766;4.474;2022-11-20T02:49:03;49.70;;;28.07;;
13897;SDS011;7019;50.766;4.474;2022-11-20T02:51:30;52.60;;;27.43;;
13897;SDS011;7019;50.766;4.474;2022-11-20T02:53:58;49.77;;;27.73;;
13897;SDS011;7019;50.766;4.474;2022-11-20T02:56:26;52.40;;;28.03;;
13897;SDS011;7019;50.766;4.474;2022-11-20T02:58:53;46.27;;;25.43;;
13897;SDS011;7019;50.766;4.474;2022-11-20T03:01:21;46.80;;;26.67;;
13897;SDS011;7019;50.766;4.474;2022-11-20T03:03:48;43.40;;;24.60;;
13897;SDS011;7019;50.766;4.474;2022-11-20T03:06:15;43.83;;;24.37;;
13897;SDS011;7019;50.766;4.474;2022-11-20T03:08:42;43.90;;;24.77;;
13897;SDS011;7019;50.766;4.474;2022-11-20T03:11:09;41.23;;;23.93;;
13897;SDS011;7019;50.766;4.474;2022-11-20T03:13:38;44.53;;;25.53;;
13897;SDS011;7019;50.766;4.474;2022-11-20T03:16:06;43.70;;;25.23;;
13897;SDS011;7019;50.766;4.474;2022-11-20T03:18:35;40.80;;;23.43;;
13897;SDS011;7019;50.766;4.474;2022-11-20T03:21:02;44.93;;;25.43;;
13897;SDS011;7019;50.766;4.474;2022-11-20T03:23:30;40.07;;;22.33;;
13897;SDS011;7019;50.766;4.474;2022-11-20T03:26:11;46.27;;;25.23;;
13897;SDS011;7019;50.766;4.474;2022-11-20T03:28:42;45.10;;;25.93;;
13897;SDS011;7019;50.766;4.474;2022-11-20T03:31:13;42.03;;;24.00;;
13897;SDS011;7019;50.766;4.474;2022-11-20T03:33:41;39.40;;;22.97;;
13897;SDS011;7019;50.766;4.474;2022-11-20T03:36:10;53.90;;;25.67;;
13897;SDS011;7019;50.766;4.474;2022-11-20T03:38:38;39.37;;;23.60;;
13897;SDS011;7019;50.766;4.474;2022-11-20T03:41:07;43.10;;;22.17;;
13897;SDS011;7019;50.766;4.474;2022-11-20T03:43:35;40.77;;;22.10;;
13897;SDS011;7019;50.766;4.474;2022-11-20T03:46:04;45.40;;;23.30;;
13897;SDS011;7019;50.766;4.474;2022-11-20T03:48:31;41.50;;;22.43;;
13897;SDS011;7019;50.766;4.474;2022-11-20T03:51:08;42.03;;;22.90;;
13897;SDS011;7019;50.766;4.474;2022-11-20T03:53:36;45.17;;;23.73;;
13897;SDS011;7019;50.766;4.474;2022-11-20T03:56:04;44.53;;;23.47;;
13897;SDS011;7019;50.766;4.474;2022-11-20T03:58:32;48.53;;;24.97;;
13897;SDS011;7019;50.766;4.474;2022-11-20T04:01:05;48.73;;;23.43;;
13897;SDS011;7019;50.766;4.474;2022-11-20T04:03:33;48.67;;;24.53;;
13897;SDS011;7019;50.766;4.474;2022-11-20T04:06:03;48.37;;;24.03;;
13897;SDS011;7019;50.766;4.474;2022-11-20T04:08:31;45.07;;;23.27;;
13897;SDS011;7019;50.766;4.474;2022-11-20T04:11:07;45.57;;;24.47;;
13897;SDS011;7019;50.766;4.474;2022-11-20T04:13:38;42.13;;;23.73;;
13897;SDS011;7019;50.766;4.474;2022-11-20T04:16:08;46.63;;;24.40;;
13897;SDS011;7019;50.766;4.474;2022-11-20T04:18:36;46.20;;;25.30;;
13897;SDS011;7019;50.766;4.474;2022-11-20T04:21:04;42.57;;;22.77;;
13897;SDS011;7019;50.766;4.474;2022-11-20T04:23:31;43.17;;;23.63;;
13897;SDS011;7019;50.766;4.474;2022-11-20T04:26:02;50.13;;;25.23;;
13897;SDS011;7019;50.766;4.474;2022-11-20T04:28:30;44.17;;;21.93;;
13897;SDS011;7019;50.766;4.474;2022-11-20T04:31:03;43.17;;;22.50;;
13897;SDS011;7019;50.766;4.474;2022-11-20T04:33:33;50.07;;;23.10;;
13897;SDS011;7019;50.766;4.474;2022-11-20T04:36:01;50.73;;;23.67;;
13897;SDS011;7019;50.766;4.474;2022-11-20T04:38:29;43.63;;;23.20;;
13897;SDS011;7019;50.766;4.474;2022-11-20T04:40:57;44.40;;;23.70;;
13897;SDS011;7019;50.766;4.474;2022-11-20T04:43:24;50.63;;;24.07;;
13897;SDS011;7019;50.766;4.474;2022-11-20T04:45:52;52.03;;;24.73;;
13897;SDS011;7019;50.766;4.474;2022-11-20T04:48:20;44.73;;;23.90;;
13897;SDS011;7019;50.766;4.474;2022-11-20T04:50:48;46.40;;;23.37;;
13897;SDS011;7019;50.766;4.474;2022-11-20T04:53:16;52.10;;;23.60;;
13897;SDS011;7019;50.766;4.474;2022-11-20T04:55:43;52.67;;;24.73;;
13897;SDS011;7019;50.766;4.474;2022-11-20T04:58:11;54.97;;;25.00;;
13897;SDS011;7019;50.766;4.474;2022-11-20T05:00:38;50.90;;;24.23;;
13897;SDS011;7019;50.766;4.474;2022-11-20T05:03:05;63.33;;;27.77;;
13897;SDS011;7019;50.766;4.474;2022-11-20T05:05:33;56.77;;;26.20;;
13897;SDS011;7019;50.766;4.474;2022-11-20T05:08:02;49.57;;;25.23;;
13897;SDS011;7019;50.766;4.474;2022-11-20T05:10:29;55.97;;;25.03;;
13897;SDS011;7019;50.766;4.474;2022-11-20T05:12:56;51.00;;;23.27;;
13897;SDS011;7019;50.766;4.474;2022-11-20T05:15:23;62.37;;;27.17;;
13897;SDS011;7019;50.766;4.474;2022-11-20T05:17:51;60.70;;;26.30;;
13897;SDS011;7019;50.766;4.474;2022-11-20T05:20:19;64.90;;;27.30;;
13897;SDS011;7019;50.766;4.474;2022-11-20T05:22:46;60.53;;;25.97;;
13897;SDS011;7019;50.766;4.474;2022-11-20T05:25:14;65.70;;;27.73;;
13897;SDS011;7019;50.766;4.474;2022-11-20T05:27:42;69.10;;;28.13;;
13897;SDS011;7019;50.766;4.474;2022-11-20T05:30:09;70.20;;;26.27;;
13897;SDS011;7019;50.766;4.474;2022-11-20T05:32:37;88.07;;;30.20;;
13897;SDS011;7019;50.766;4.474;2022-11-20T05:35:05;69.67;;;28.50;;
13897;SDS011;7019;50.766;4.474;2022-11-20T05:37:32;87.70;;;30.23;;
13897;SDS011;7019;50.766;4.474;2022-11-20T05:39:59;69.27;;;28.27;;
13897;SDS011;7019;50.766;4.474;2022-11-20T05:42:31;78.27;;;30.10;;
13897;SDS011;7019;50.766;4.474;2022-11-20T05:44:58;86.23;;;30.90;;
13897;SDS011;7019;50.766;4.474;2022-11-20T05:47:25;77.73;;;30.40;;
13897;SDS011;7019;50.766;4.474;2022-11-20T05:49:53;72.97;;;28.40;;
13897;SDS011;7019;50.766;4.474;2022-11-20T05:52:20;73.40;;;29.90;;
13897;SDS011;7019;50.766;4.474;2022-11-20T05:54:47;87.27;;;30.13;;
13897;SDS011;7019;50.766;4.474;2022-11-20T05:57:14;90.07;;;31.80;;
13897;SDS011;7019;50.766;4.474;2022-11-20T05:59:43;112.97;;;36.77;;
13897;SDS011;7019;50.766;4.474;2022-11-20T06:02:10;90.30;;;31.90;;
13897;SDS011;7019;50.766;4.474;2022-11-20T06:04:38;94.73;;;31.53;;
13897;SDS011;7019;50.766;4.474;2022-11-20T06:07:05;97.20;;;31.97;;
13897;SDS011;7019;50.766;4.474;2022-11-20T06:09:32;86.80;;;29.70;;
13897;SDS011;7019;50.766;4.474;2022-11-20T06:11:59;109.93;;;33.23;;
13897;SDS011;7019;50.766;4.474;2022-11-20T06:14:26;98.03;;;33.33;;
13897;SDS011;7019;50.766;4.474;2022-11-20T06:16:55;97.63;;;33.30;;
13897;SDS011;7019;50.766;4.474;2022-11-20T06:19:22;109.70;;;33.97;;
13897;SDS011;7019;50.766;4.474;2022-11-20T06:21:49;102.57;;;32.07;;
13897;SDS011;7019;50.766;4.474;2022-11-20T06:24:16;97.23;;;34.70;;
13897;SDS011;7019;50.766;4.474;2022-11-20T06:26:43;112.90;;;34.30;;
13897;SDS011;7019;50.766;4.474;2022-11-20T06:29:11;126.67;;;36.43;;
13897;SDS011;7019;50.766;4.474;2022-11-20T06:31:38;107.60;;;34.50;;
13897;SDS011;7019;50.766;4.474;2022-11-20T06:34:08;126.53;;;37.53;;
13897;SDS011;7019;50.766;4.474;2022-11-20T06:36:35;133.60;;;35.17;;
13897;SDS011;7019;50.766;4.474;2022-11-20T06:39:02;142.37;;;36.50;;
13897;SDS011;7019;50.766;4.474;2022-11-20T06:41:30;112.27;;;36.53;;
13897;SDS011;7019;50.766;4.474;2022-11-20T06:43:57;123.63;;;35.20;;
13897;SDS011;7019;50.766;4.474;2022-11-20T06:46:24;122.60;;;34.90;;
13897;SDS011;7019;50.766;4.474;2022-11-20T06:48:51;100.27;;;34.80;;
13897;SDS011;7019;50.766;4.474;2022-11-20T06:51:19;108.03;;;34.53;;
13897;SDS011;7019;50.766;4.474;2022-11-20T06:53:46;141.13;;;47.13;;
13897;SDS011;7019;50.766;4.474;2022-11-20T06:56:14;125.03;;;36.30;;
13897;SDS011;7019;50.766;4.474;2022-11-20T06:58:41;101.03;;;34.33;;
13897;SDS011;7019;50.766;4.474;2022-11-20T07:01:09;139.60;;;36.63;;
13897;SDS011;7019;50.766;4.474;2022-11-20T07:03:38;101.47;;;34.90;;
13897;SDS011;7019;50.766;4.474;2022-11-20T07:06:05;134.83;;;37.10;;
13897;SDS011;7019;50.766;4.474;2022-11-20T07:08:34;124.17;;;35.60;;
13897;SDS011;7019;50.766;4.474;2022-11-20T07:11:02;109.33;;;34.60;;
13897;SDS011;7019;50.766;4.474;2022-11-20T07:13:31;96.13;;;32.10;;
13897;SDS011;7019;50.766;4.474;2022-11-20T07:15:59;90.87;;;32.13;;
13897;SDS011;7019;50.766;4.474;2022-11-20T07:18:27;96.47;;;33.83;;
13897;SDS011;7019;50.766;4.474;2022-11-20T07:20:54;87.33;;;32.27;;
13897;SDS011;7019;50.766;4.474;2022-11-20T07:23:21;85.60;;;31.87;;
13897;SDS011;7019;50.766;4.474;2022-11-20T07:25:49;99.23;;;32.33;;
13897;SDS011;7019;50.766;4.474;2022-11-20T07:28:18;95.43;;;31.73;;
13897;SDS011;7019;50.766;4.474;2022-11-20T07:30:48;94.07;;;32.47;;
13897;SDS011;7019;50.766;4.474;2022-11-20T07:33:16;92.23;;;31.53;;
13897;SDS011;7019;50.766;4.474;2022-11-20T07:35:44;85.80;;;30.93;;
13897;SDS011;7019;50.766;4.474;2022-11-20T07:38:11;78.33;;;29.10;;
13897;SDS011;7019;50.766;4.474;2022-11-20T07:40:39;85.57;;;31.10;;
13897;SDS011;7019;50.766;4.474;2022-11-20T07:43:07;81.70;;;31.53;;
13897;SDS011;7019;50.766;4.474;2022-11-20T07:45:34;84.77;;;32.50;;
13897;SDS011;7019;50.766;4.474;2022-11-20T07:48:02;71.27;;;28.73;;
13897;SDS011;7019;50.766;4.474;2022-11-20T07:50:29;88.77;;;33.10;;
13897;SDS011;7019;50.766;4.474;2022-11-20T07:53:02;92.33;;;30.37;;
13897;SDS011;7019;50.766;4.474;2022-11-20T07:55:31;83.90;;;31.13;;
13897;SDS011;7019;50.766;4.474;2022-11-20T07:57:59;88.20;;;32.13;;
13897;SDS011;7019;50.766;4.474;2022-11-20T08:00:27;93.43;;;30.53;;
13897;SDS011;7019;50.766;4.474;2022-11-20T08:02:54;90.33;;;30.30;;
13897;SDS011;7019;50.766;4.474;2022-11-20T08:05:22;82.83;;;30.00;;
13897;SDS011;7019;50.766;4.474;2022-11-20T08:07:49;104.30;;;32.80;;
13897;SDS011;7019;50.766;4.474;2022-11-20T08:10:16;92.70;;;33.33;;
13897;SDS011;7019;50.766;4.474;2022-11-20T08:12:44;95.50;;;32.03;;
13897;SDS011;7019;50.766;4.474;2022-11-20T08:15:30;96.43;;;32.83;;
13897;SDS011;7019;50.766;4.474;2022-11-20T08:18:01;97.67;;;32.73;;
13897;SDS011;7019;50.766;4.474;2022-11-20T08:20:29;91.40;;;31.27;;
13897;SDS011;7019;50.766;4.474;2022-11-20T08:22:59;91.23;;;31.57;;
13897;SDS011;7019;50.766;4.474;2022-11-20T08:25:27;95.57;;;32.33;;
13897;SDS011;7019;50.766;4.474;2022-11-20T08:27:56;99.33;;;31.97;;
13897;SDS011;7019;50.766;4.474;2022-11-20T08:30:24;92.53;;;32.33;;
13897;SDS011;7019;50.766;4.474;2022-11-20T08:32:53;83.53;;;30.70;;
13897;SDS011;7019;50.766;4.474;2022-11-20T08:35:20;87.50;;;33.40;;
13897;SDS011;7019;50.766;4.474;2022-11-20T08:37:47;85.03;;;31.93;;
13897;SDS011;7019;50.766;4.474;2022-11-20T08:40:15;95.87;;;31.67;;
13897;SDS011;7019;50.766;4.474;2022-11-20T08:42:46;95.63;;;31.23;;
13897;SDS011;7019;50.766;4.474;2022-11-20T08:45:13;80.23;;;30.47;;
13897;SDS011;7019;50.766;4.474;2022-11-20T08:47:41;95.43;;;33.07;;
13897;SDS011;7019;50.766;4.474;2022-11-20T08:50:09;79.10;;;30.23;;
13897;SDS011;7019;50.766;4.474;2022-11-20T08:52:37;77.33;;;29.13;;
13897;SDS011;7019;50.766;4.474;2022-11-20T08:55:05;79.10;;;30.60;;
13897;SDS011;7019;50.766;4.474;2022-11-20T08:57:33;70.40;;;27.47;;
13897;SDS011;7019;50.766;4.474;2022-11-20T09:00:01;70.40;;;29.30;;
13897;SDS011;7019;50.766;4.474;2022-11-20T09:02:30;71.90;;;26.67;;
13897;SDS011;7019;50.766;4.474;2022-11-20T09:04:57;60.17;;;26.20;;
13897;SDS011;7019;50.766;4.474;2022-11-20T09:07:26;66.73;;;26.10;;
13897;SDS011;7019;50.766;4.474;2022-11-20T09:09:53;66.77;;;28.07;;
13897;SDS011;7019;50.766;4.474;2022-11-20T09:12:20;69.27;;;27.73;;
13897;SDS011;7019;50.766;4.474;2022-11-20T09:14:47;55.83;;;24.97;;
13897;SDS011;7019;50.766;4.474;2022-11-20T09:17:14;57.43;;;25.63;;
13897;SDS011;7019;50.766;4.474;2022-11-20T09:19:42;63.00;;;26.80;;
13897;SDS011;7019;50.766;4.474;2022-11-20T09:22:09;53.07;;;25.37;;
13897;SDS011;7019;50.766;4.474;2022-11-20T09:24:37;44.67;;;22.20;;
13897;SDS011;7019;50.766;4.474;2022-11-20T09:27:04;48.27;;;22.43;;
13897;SDS011;7019;50.766;4.474;2022-11-20T09:29:32;49.03;;;22.83;;
13897;SDS011;7019;50.766;4.474;2022-11-20T09:31:59;44.57;;;21.93;;
13897;SDS011;7019;50.766;4.474;2022-11-20T09:34:26;45.67;;;22.73;;
13897;SDS011;7019;50.766;4.474;2022-11-20T09:36:53;38.57;;;20.37;;
13897;SDS011;7019;50.766;4.474;2022-11-20T09:39:20;40.37;;;19.80;;
13897;SDS011;7019;50.766;4.474;2022-11-20T09:41:51;37.43;;;20.00;;
13897;SDS011;7019;50.766;4.474;2022-11-20T09:44:40;36.97;;;19.13;;
13897;SDS011;7019;50.766;4.474;2022-11-20T09:47:20;38.93;;;20.27;;
13897;SDS011;7019;50.766;4.474;2022-11-20T09:49:57;36.23;;;20.37;;
13897;SDS011;7019;50.766;4.474;2022-11-20T09:52:34;37.23;;;19.80;;
13897;SDS011;7019;50.766;4.474;2022-11-20T09:55:12;38.80;;;19.67;;
13897;SDS011;7019;50.766;4.474;2022-11-20T09:57:43;38.90;;;20.40;;
13897;SDS011;7019;50.766;4.474;2022-11-20T10:00:13;39.50;;;19.60;;
13897;SDS011;7019;50.766;4.474;2022-11-20T10:02:42;30.53;;;17.47;;
13897;SDS011;7019;50.766;4.474;2022-11-20T10:05:15;29.77;;;16.27;;
13897;SDS011;7019;50.766;4.474;2022-11-20T10:07:47;30.17;;;15.27;;
13897;SDS011;7019;50.766;4.474;2022-11-20T10:10:22;23.73;;;15.10;;
13897;SDS011;7019;50.766;4.474;2022-11-20T10:13:12;22.33;;;14.57;;
13897;SDS011;7019;50.766;4.474;2022-11-20T10:16:01;22.87;;;13.17;;
13897;SDS011;7019;50.766;4.474;2022-11-20T10:18:42;24.67;;;12.60;;
13897;SDS011;7019;50.766;4.474;2022-11-20T10:21:20;19.03;;;11.03;;
13897;SDS011;7019;50.766;4.474;2022-11-20T10:24:04;17.03;;;9.00;;
13897;SDS011;7019;50.766;4.474;2022-11-20T10:26:56;17.93;;;10.17;;
13897;SDS011;7019;50.766;4.474;2022-11-20T10:29:32;13.63;;;8.70;;
13897;SDS011;7019;50.766;4.474;2022-11-20T10:32:00;15.30;;;9.03;;
13897;SDS011;7019;50.766;4.474;2022-11-20T10:34:31;11.47;;;6.67;;
13897;SDS011;7019;50.766;4.474;2022-11-20T10:37:02;15.23;;;7.33;;
13897;SDS011;7019;50.766;4.474;2022-11-20T10:39:36;10.33;;;6.00;;
13897;SDS011;7019;50.766;4.474;2022-11-20T10:42:08;12.87;;;5.47;;
13897;SDS011;7019;50.766;4.474;2022-11-20T10:44:42;9.07;;;6.47;;
13897;SDS011;7019;50.766;4.474;2022-11-20T10:47:27;8.97;;;5.30;;
13897;SDS011;7019;50.766;4.474;2022-11-20T10:49:57;11.10;;;5.47;;
13897;SDS011;7019;50.766;4.474;2022-11-20T10:52:34;11.63;;;4.70;;
13897;SDS011;7019;50.766;4.474;2022-11-20T10:55:16;8.80;;;4.37;;
13897;SDS011;7019;50.766;4.474;2022-11-20T10:57:54;11.77;;;4.30;;
13897;SDS011;7019;50.766;4.474;2022-11-20T11:00:31;8.37;;;3.87;;
13897;SDS011;7019;50.766;4.474;2022-11-20T11:02:59;5.17;;;3.87;;
13897;SDS011;7019;50.766;4.474;2022-11-20T11:05:33;6.07;;;3.67;;
13897;SDS011;7019;50.766;4.474;2022-11-20T11:08:04;8.80;;;3.73;;
13897;SDS011;7019;50.766;4.474;2022-11-20T11:10:39;7.13;;;3.97;;
13897;SDS011;7019;50.766;4.474;2022-11-20T11:13:18;6.80;;;2.73;;
13897;SDS011;7019;50.766;4.474;2022-11-20T11:15:48;8.17;;;3.00;;
13897;SDS011;7019;50.766;4.474;2022-11-20T11:18:22;3.23;;;2.73;;
13897;SDS011;7019;50.766;4.474;2022-11-20T11:20:51;5.47;;;2.80;;
13897;SDS011;7019;50.766;4.474;2022-11-20T11:23:28;9.87;;;3.40;;
13897;SDS011;7019;50.766;4.474;2022-11-20T11:25:58;5.90;;;2.73;;
13897;SDS011;7019;50.766;4.474;2022-11-20T11:28:27;6.67;;;3.07;;
13897;SDS011;7019;50.766;4.474;2022-11-20T11:30:56;5.30;;;2.80;;
13897;SDS011;7019;50.766;4.474;2022-11-20T11:33:23;5.07;;;2.27;;
13897;SDS011;7019;50.766;4.474;2022-11-20T11:35:52;3.77;;;2.50;;
13897;SDS011;7019;50.766;4.474;2022-11-20T11:38:23;5.47;;;2.77;;
13897;SDS011;7019;50.766;4.474;2022-11-20T11:40:57;3.27;;;2.20;;
13897;SDS011;7019;50.766;4.474;2022-11-20T11:43:25;7.63;;;2.90;;
13897;SDS011;7019;50.766;4.474;2022-11-20T11:46:24;6.57;;;2.80;;
13897;SDS011;7019;50.766;4.474;2022-11-20T11:48:57;8.87;;;2.17;;
13897;SDS011;7019;50.766;4.474;2022-11-20T11:51:30;3.83;;;2.40;;
13897;SDS011;7019;50.766;4.474;2022-11-20T11:54:01;5.57;;;2.40;;
13897;SDS011;7019;50.766;4.474;2022-11-20T11:56:36;8.67;;;2.93;;
13897;SDS011;7019;50.766;4.474;2022-11-20T11:59:04;9.10;;;3.03;;
13897;SDS011;7019;50.766;4.474;2022-11-20T12:01:38;7.03;;;3.47;;
13897;SDS011;7019;50.766;4.474;2022-11-20T12:04:13;4.83;;;2.23;;
13897;SDS011;7019;50.766;4.474;2022-11-20T12:06:47;6.33;;;3.03;;
13897;SDS011;7019;50.766;4.474;2022-11-20T12:09:20;6.27;;;2.73;;
13897;SDS011;7019;50.766;4.474;2022-11-20T12:11:55;6.17;;;2.77;;
13897;SDS011;7019;50.766;4.474;2022-11-20T12:14:31;6.00;;;2.23;;
13897;SDS011;7019;50.766;4.474;2022-11-20T12:17:03;7.50;;;3.00;;
13897;SDS011;7019;50.766;4.474;2022-11-20T12:19:31;6.00;;;2.87;;
13897;SDS011;7019;50.766;4.474;2022-11-20T12:22:02;5.73;;;2.57;;
13897;SDS011;7019;50.766;4.474;2022-11-20T12:24:42;7.53;;;3.23;;
13897;SDS011;7019;50.766;4.474;2022-11-20T12:27:26;12.00;;;3.60;;
13897;SDS011;7019;50.766;4.474;2022-11-20T12:30:12;8.30;;;3.43;;
13897;SDS011;7019;50.766;4.474;2022-11-20T12:42:09;6.33;;;3.17;;
13897;SDS011;7019;50.766;4.474;2022-11-20T12:48:29;6.93;;;3.43;;
13897;SDS011;7019;50.766;4.474;2022-11-20T12:51:21;9.33;;;3.60;;
13897;SDS011;7019;50.766;4.474;2022-11-20T12:54:35;7.27;;;2.90;;
13897;SDS011;7019;50.766;4.474;2022-11-20T12:57:21;6.27;;;2.63;;
13897;SDS011;7019;50.766;4.474;2022-11-20T12:59:57;8.20;;;3.13;;
13897;SDS011;7019;50.766;4.474;2022-11-20T13:02:35;8.57;;;3.40;;
13897;SDS011;7019;50.766;4.474;2022-11-20T13:05:16;6.50;;;4.03;;
13897;SDS011;7019;50.766;4.474;2022-11-20T13:07:48;8.37;;;3.50;;
13897;SDS011;7019;50.766;4.474;2022-11-20T13:10:21;6.90;;;3.10;;
13897;SDS011;7019;50.766;4.474;2022-11-20T13:12:56;7.53;;;3.53;;
13897;SDS011;7019;50.766;4.474;2022-11-20T13:15:34;11.57;;;3.50;;
13897;SDS011;7019;50.766;4.474;2022-11-20T13:18:10;8.57;;;3.60;;
13897;SDS011;7019;50.766;4.474;2022-11-20T13:20:41;9.07;;;4.00;;
13897;SDS011;7019;50.766;4.474;2022-11-20T13:23:11;10.53;;;4.17;;
13897;SDS011;7019;50.766;4.474;2022-11-20T13:25:48;11.53;;;4.53;;
13897;SDS011;7019;50.766;4.474;2022-11-20T13:28:27;5.87;;;3.30;;
13897;SDS011;7019;50.766;4.474;2022-11-20T13:30:56;7.13;;;3.20;;
13897;SDS011;7019;50.766;4.474;2022-11-20T13:33:26;8.60;;;3.83;;
13897;SDS011;7019;50.766;4.474;2022-11-20T13:35:56;6.73;;;3.83;;
13897;SDS011;7019;50.766;4.474;2022-11-20T13:38:27;8.30;;;3.67;;
13897;SDS011;7019;50.766;4.474;2022-11-20T13:40:55;4.10;;;3.70;;
13897;SDS011;7019;50.766;4.474;2022-11-20T13:43:27;6.50;;;3.50;;
13897;SDS011;7019;50.766;4.474;2022-11-20T13:46:00;5.93;;;3.70;;
13897;SDS011;7019;50.766;4.474;2022-11-20T13:48:29;5.63;;;3.37;;
13897;SDS011;7019;50.766;4.474;2022-11-20T13:51:04;6.47;;;3.40;;
13897;SDS011;7019;50.766;4.474;2022-11-20T13:53:52;5.47;;;2.80;;
13897;SDS011;7019;50.766;4.474;2022-11-20T13:56:33;5.57;;;3.03;;
13897;SDS011;7019;50.766;4.474;2022-11-20T13:59:08;5.43;;;3.37;;
13897;SDS011;7019;50.766;4.474;2022-11-20T14:01:46;5.50;;;3.70;;
13897;SDS011;7019;50.766;4.474;2022-11-20T14:04:17;6.57;;;3.70;;
13897;SDS011;7019;50.766;4.474;2022-11-20T14:06:49;5.87;;;2.87;;
13897;SDS011;7019;50.766;4.474;2022-11-20T14:09:26;5.07;;;3.47;;
13897;SDS011;7019;50.766;4.474;2022-11-20T14:11:55;6.40;;;3.30;;
13897;SDS011;7019;50.766;4.474;2022-11-20T14:14:23;5.70;;;3.07;;
13897;SDS011;7019;50.766;4.474;2022-11-20T14:16:51;5.30;;;3.43;;
13897;SDS011;7019;50.766;4.474;2022-11-20T14:19:26;3.03;;;2.37;;
13897;SDS011;7019;50.766;4.474;2022-11-20T14:22:07;8.07;;;2.57;;
13897;SDS011;7019;50.766;4.474;2022-11-20T14:24:38;3.97;;;2.70;;
13897;SDS011;7019;50.766;4.474;2022-11-20T14:27:09;4.30;;;2.10;;
13897;SDS011;7019;50.766;4.474;2022-11-20T14:29:39;2.13;;;1.93;;
13897;SDS011;7019;50.766;4.474;2022-11-20T14:32:08;3.87;;;2.50;;
13897;SDS011;7019;50.766;4.474;2022-11-20T14:34:38;3.60;;;1.90;;
13897;SDS011;7019;50.766;4.474;2022-11-20T14:37:10;3.60;;;2.30;;
13897;SDS011;7019;50.766;4.474;2022-11-20T14:39:42;3.60;;;1.90;;
13897;SDS011;7019;50.766;4.474;2022-11-20T14:42:16;2.80;;;2.00;;
13897;SDS011;7019;50.766;4.474;2022-11-20T14:44:44;4.63;;;2.03;;
13897;SDS011;7019;50.766;4.474;2022-11-20T14:47:12;2.50;;;2.13;;
13897;SDS011;7019;50.766;4.474;2022-11-20T14:49:41;2.83;;;2.53;;
13897;SDS011;7019;50.766;4.474;2022-11-20T14:52:11;3.17;;;2.47;;
13897;SDS011;7019;50.766;4.474;2022-11-20T14:54:45;3.73;;;2.33;;
13897;SDS011;7019;50.766;4.474;2022-11-20T14:57:20;4.50;;;2.57;;
13897;SDS011;7019;50.766;4.474;2022-11-20T14:59:49;7.10;;;3.50;;
13897;SDS011;7019;50.766;4.474;2022-11-20T15:02:16;17.83;;;5.50;;
13897;SDS011;7019;50.766;4.474;2022-11-20T15:04:44;6.83;;;3.67;;
13897;SDS011;7019;50.766;4.474;2022-11-20T15:07:22;5.13;;;3.50;;
13897;SDS011;7019;50.766;4.474;2022-11-20T15:10:00;4.43;;;2.80;;
13897;SDS011;7019;50.766;4.474;2022-11-20T15:12:29;4.93;;;3.33;;
13897;SDS011;7019;50.766;4.474;2022-11-20T15:14:56;6.50;;;3.20;;